Time;durP1;ratioP1;P1;durP2;ratioP2;P2;SDS_P1;SDS_P2;PMS_P1;PMS_P2;Temp;Humidity;BMP_temperature;BMP_pressure;BME280_temperature;BME280_humidity;BME280_pressure;Samples;Min_cycle;Max_cycle;Signal;HPM_P1;HPM_P2
2022/12/18 00:00:39;;;;;;;43.28;27.25;;;;;;;;;;5048807;28;20098;-73
2022/12/18 00:03:05;;;;;;;43.80;26.05;;;;;;;;;;5047128;28;20017;-73
2022/12/18 00:05:30;;;;;;;40.80;24.92;;;;;;;;;;5044457;28;20029;-73
2022/12/18 00:07:55;;;;;;;46.40;25.05;;;;;;;;;;5042838;28;20028;-73
2022/12/18 00:10:20;;;;;;;38.92;24.77;;;;;;;;;;5048504;28;20368;-73
2022/12/18 00:12:45;;;;;;;53.33;27.10;;;;;;;;;;5046012;28;20074;-73
2022/12/18 00:15:11;;;;;;;47.50;26.98;;;;;;;;;;5048254;28;20059;-73
2022/12/18 00:17:36;;;;;;;45.80;25.75;;;;;;;;;;5048008;28;20040;-72
2022/12/18 00:20:01;;;;;;;46.05;25.73;;;;;;;;;;5047693;28;20028;-72
2022/12/18 00:22:27;;;;;;;46.80;26.00;;;;;;;;;;5046533;28;20485;-72
2022/12/18 00:24:52;;;;;;;45.90;25.15;;;;;;;;;;5047074;28;20132;-72
2022/12/18 00:27:17;;;;;;;45.70;27.50;;;;;;;;;;5045344;28;20121;-72
2022/12/18 00:29:42;;;;;;;42.45;26.15;;;;;;;;;;5045797;28;20049;-72
2022/12/18 00:32:07;;;;;;;45.55;27.63;;;;;;;;;;5046774;28;20041;-72
2022/12/18 00:34:33;;;;;;;41.30;27.95;;;;;;;;;;5047780;28;20025;-72
2022/12/18 00:36:58;;;;;;;54.80;27.27;;;;;;;;;;5047846;28;20036;-71
2022/12/18 00:39:23;;;;;;;51.60;23.77;;;;;;;;;;5047595;28;20021;-72
2022/12/18 00:44:32;;;;;;;46.97;26.73;;;;;;;;;;5048093;28;20052;-74
2022/12/18 00:46:58;;;;;;;45.53;27.25;;;;;;;;;;5045496;28;20033;-73
2022/12/18 00:49:23;;;;;;;41.70;26.77;;;;;;;;;;5048241;28;20506;-72
2022/12/18 00:51:48;;;;;;;46.45;27.35;;;;;;;;;;5047004;28;20029;-72
2022/12/18 00:54:13;;;;;;;44.42;25.15;;;;;;;;;;5048301;28;20036;-72
2022/12/18 00:56:39;;;;;;;47.13;24.27;;;;;;;;;;5047606;28;20517;-72
2022/12/18 00:59:04;;;;;;;47.67;27.60;;;;;;;;;;5024408;28;20020;-72
2022/12/18 01:01:30;;;;;;;47.03;27.85;;;;;;;;;;5043778;28;20075;-72
2022/12/18 01:03:55;;;;;;;42.13;27.13;;;;;;;;;;5045225;28;20029;-72
2022/12/18 01:06:20;;;;;;;47.00;28.25;;;;;;;;;;5044530;28;20032;-73
2022/12/18 01:08:46;;;;;;;42.80;24.20;;;;;;;;;;5042380;28;20534;-73
2022/12/18 01:11:12;;;;;;;46.17;26.50;;;;;;;;;;5042721;28;20091;-73
2022/12/18 01:13:38;;;;;;;48.78;25.85;;;;;;;;;;5045500;28;20093;-73
2022/12/18 01:16:03;;;;;;;45.45;26.90;;;;;;;;;;5047181;28;20467;-73
2022/12/18 01:18:29;;;;;;;43.70;25.20;;;;;;;;;;5043249;28;20124;-73
2022/12/18 01:20:54;;;;;;;46.13;27.63;;;;;;;;;;5043374;28;20017;-73
2022/12/18 01:23:19;;;;;;;42.70;24.00;;;;;;;;;;5041991;28;20734;-73
2022/12/18 01:25:44;;;;;;;43.28;24.48;;;;;;;;;;5042175;28;20032;-73
2022/12/18 01:28:09;;;;;;;47.35;24.85;;;;;;;;;;5040238;28;20056;-72
2022/12/18 01:30:35;;;;;;;42.20;24.35;;;;;;;;;;5033678;28;20021;-72
2022/12/18 01:33:00;;;;;;;44.65;26.23;;;;;;;;;;5041036;28;20021;-73
2022/12/18 01:35:25;;;;;;;40.70;26.60;;;;;;;;;;5036995;28;20070;-72
2022/12/18 01:37:54;;;;;;;49.85;28.90;;;;;;;;;;5041845;28;20139;-73
2022/12/18 01:40:19;;;;;;;46.13;26.98;;;;;;;;;;5037725;28;20032;-73
2022/12/18 01:42:44;;;;;;;48.78;28.48;;;;;;;;;;5040438;28;20032;-73
2022/12/18 01:45:15;;;;;;;48.15;27.77;;;;;;;;;;5042889;28;20017;-72
2022/12/18 01:47:48;;;;;;;50.67;28.48;;;;;;;;;;5042997;28;20145;-72
2022/12/18 01:50:16;;;;;;;46.80;27.80;;;;;;;;;;5035586;28;20099;-73
2022/12/18 01:52:52;;;;;;;47.15;28.83;;;;;;;;;;5036586;28;20025;-72
2022/12/18 01:55:19;;;;;;;50.75;27.73;;;;;;;;;;5040534;28;20350;-72
2022/12/18 01:57:44;;;;;;;51.10;27.27;;;;;;;;;;5036246;28;21485;-73
2022/12/18 02:00:13;;;;;;;40.72;26.30;;;;;;;;;;5027564;28;20020;-72
2022/12/18 02:02:39;;;;;;;49.42;26.80;;;;;;;;;;5036965;28;20082;-72
2022/12/18 02:05:05;;;;;;;45.22;25.95;;;;;;;;;;5037560;28;20017;-72
2022/12/18 02:07:36;;;;;;;38.75;25.88;;;;;;;;;;5037467;28;20036;-72
2022/12/18 02:10:06;;;;;;;43.17;25.50;;;;;;;;;;5039031;28;20082;-71
2022/12/18 02:12:39;;;;;;;46.33;27.10;;;;;;;;;;5036556;28;20116;-72
2022/12/18 02:15:13;;;;;;;42.28;26.35;;;;;;;;;;5013457;28;20930;-72
2022/12/18 02:17:56;;;;;;;45.10;27.30;;;;;;;;;;5038677;28;20025;-73
2022/12/18 02:20:28;;;;;;;45.95;25.30;;;;;;;;;;5037887;28;20048;-73
2022/12/18 02:23:00;;;;;;;45.33;25.27;;;;;;;;;;5035117;28;20052;-73
2022/12/18 02:25:26;;;;;;;39.50;25.80;;;;;;;;;;5034885;28;20033;-72
2022/12/18 02:27:51;;;;;;;49.97;26.90;;;;;;;;;;5034921;28;20025;-72
2022/12/18 02:30:17;;;;;;;44.88;26.70;;;;;;;;;;5033646;28;20908;-72
2022/12/18 02:32:49;;;;;;;46.72;26.50;;;;;;;;;;5033156;28;20017;-73
2022/12/18 02:35:23;;;;;;;43.60;26.05;;;;;;;;;;5037006;28;20120;-73
2022/12/18 02:37:52;;;;;;;40.55;24.42;;;;;;;;;;5036576;28;20024;-73
2022/12/18 02:40:17;;;;;;;46.30;24.10;;;;;;;;;;5036027;28;20036;-73
2022/12/18 02:42:43;;;;;;;43.13;24.75;;;;;;;;;;5037804;28;20029;-72
2022/12/18 02:45:08;;;;;;;38.03;24.35;;;;;;;;;;5037652;28;20475;-73
2022/12/18 02:47:36;;;;;;;43.40;25.02;;;;;;;;;;5042477;28;20037;-72
2022/12/18 02:50:02;;;;;;;42.92;24.17;;;;;;;;;;5043034;28;20431;-72
2022/12/18 02:52:47;;;;;;;38.58;23.38;;;;;;;;;;5033036;28;20091;-72
2022/12/18 02:55:16;;;;;;;41.10;23.40;;;;;;;;;;5016896;28;20041;-72
2022/12/18 02:57:47;;;;;;;42.85;24.17;;;;;;;;;;5033550;28;20024;-72
2022/12/18 03:00:17;;;;;;;37.15;22.10;;;;;;;;;;5034368;28;20029;-73
2022/12/18 03:02:48;;;;;;;34.33;21.42;;;;;;;;;;5038184;28;20464;-73
2022/12/18 03:05:17;;;;;;;31.23;19.63;;;;;;;;;;5040708;28;20336;-72
2022/12/18 03:07:46;;;;;;;31.00;19.20;;;;;;;;;;5039846;28;20025;-73
2022/12/18 03:10:14;;;;;;;34.45;20.52;;;;;;;;;;5038232;28;20028;-72
2022/12/18 03:12:42;;;;;;;35.08;19.95;;;;;;;;;;5036758;28;20021;-73
2022/12/18 03:15:16;;;;;;;34.42;21.83;;;;;;;;;;5034658;28;20916;-72
2022/12/18 03:17:44;;;;;;;36.65;20.90;;;;;;;;;;5039782;28;20147;-72
2022/12/18 03:20:14;;;;;;;33.55;20.63;;;;;;;;;;5041480;28;20021;-72
2022/12/18 03:22:41;;;;;;;37.65;19.42;;;;;;;;;;5037998;28;20075;-72
2022/12/18 03:25:09;;;;;;;36.05;22.02;;;;;;;;;;5036467;28;20489;-72
2022/12/18 03:27:36;;;;;;;34.63;21.65;;;;;;;;;;5036282;28;20138;-72
2022/12/18 03:30:08;;;;;;;30.50;18.92;;;;;;;;;;5035561;28;20021;-73
2022/12/18 03:32:46;;;;;;;29.30;19.08;;;;;;;;;;5036406;28;20031;-73
2022/12/18 03:35:13;;;;;;;33.28;19.52;;;;;;;;;;5034559;28;20075;-73
2022/12/18 03:37:38;;;;;;;29.10;18.40;;;;;;;;;;5034005;28;20033;-73
2022/12/18 03:40:04;;;;;;;31.92;19.98;;;;;;;;;;5034239;28;20550;-73
2022/12/18 03:42:38;;;;;;;32.25;18.58;;;;;;;;;;5036898;28;20024;-73
2022/12/18 03:45:07;;;;;;;36.40;18.45;;;;;;;;;;5036183;28;20043;-73
2022/12/18 03:48:02;;;;;;;28.60;18.88;;;;;;;;;;5038867;28;20754;-73
2022/12/18 03:50:46;;;;;;;36.78;18.25;;;;;;;;;;5032123;28;20048;-73
2022/12/18 03:53:14;;;;;;;33.75;18.65;;;;;;;;;;5038696;28;20029;-73
2022/12/18 03:55:40;;;;;;;32.38;19.35;;;;;;;;;;5038278;28;20032;-72
2022/12/18 03:58:06;;;;;;;30.25;17.67;;;;;;;;;;5035405;28;20016;-72
2022/12/18 04:00:32;;;;;;;29.58;16.65;;;;;;;;;;5036560;28;20104;-72
2022/12/18 04:02:59;;;;;;;30.83;19.17;;;;;;;;;;5034696;28;20021;-72
2022/12/18 04:05:25;;;;;;;27.48;16.98;;;;;;;;;;5035041;28;20020;-72
2022/12/18 04:07:51;;;;;;;24.67;16.80;;;;;;;;;;5036961;28;20550;-71
2022/12/18 04:10:17;;;;;;;25.30;16.42;;;;;;;;;;5034922;28;20529;-72
2022/12/18 04:12:42;;;;;;;24.13;16.33;;;;;;;;;;5036604;28;20027;-73
2022/12/18 04:15:08;;;;;;;26.90;17.13;;;;;;;;;;5037127;28;20650;-73
2022/12/18 04:17:33;;;;;;;33.40;16.33;;;;;;;;;;5037035;28;20131;-73
2022/12/18 04:19:58;;;;;;;28.65;17.63;;;;;;;;;;5037404;28;20025;-73
2022/12/18 04:22:23;;;;;;;29.35;17.00;;;;;;;;;;5036077;28;20450;-73
2022/12/18 04:24:49;;;;;;;30.38;16.42;;;;;;;;;;5034160;28;20048;-73
2022/12/18 04:27:14;;;;;;;24.98;16.85;;;;;;;;;;5037462;28;20024;-73
2022/12/18 04:29:39;;;;;;;27.63;15.68;;;;;;;;;;5039404;28;20044;-73
2022/12/18 04:32:05;;;;;;;23.23;15.32;;;;;;;;;;5040687;28;20067;-72
2022/12/18 04:34:30;;;;;;;28.55;15.35;;;;;;;;;;5041735;28;20856;-72
2022/12/18 04:36:55;;;;;;;26.35;15.85;;;;;;;;;;5033672;28;20786;-73
2022/12/18 04:39:21;;;;;;;25.50;16.10;;;;;;;;;;5037904;28;20036;-73
2022/12/18 04:41:46;;;;;;;24.95;16.20;;;;;;;;;;5038181;28;20402;-73
2022/12/18 04:44:11;;;;;;;30.00;16.38;;;;;;;;;;5040195;28;20182;-73
2022/12/18 04:46:36;;;;;;;27.92;16.88;;;;;;;;;;5041598;28;20017;-74
2022/12/18 04:49:02;;;;;;;26.80;15.93;;;;;;;;;;5038214;28;20544;-74
2022/12/18 04:51:27;;;;;;;24.58;15.95;;;;;;;;;;5039001;28;20140;-74
2022/12/18 04:53:53;;;;;;;25.90;16.05;;;;;;;;;;5036531;28;20814;-74
2022/12/18 04:56:18;;;;;;;26.50;16.58;;;;;;;;;;5034970;28;20036;-74
2022/12/18 04:58:44;;;;;;;26.88;15.73;;;;;;;;;;5027774;28;20025;-74
2022/12/18 05:01:10;;;;;;;29.88;16.15;;;;;;;;;;5026853;28;20013;-74
2022/12/18 05:03:35;;;;;;;25.52;15.40;;;;;;;;;;5041121;28;20025;-73
2022/12/18 05:06:01;;;;;;;25.10;15.52;;;;;;;;;;5038350;28;20787;-74
2022/12/18 05:08:26;;;;;;;22.15;15.30;;;;;;;;;;5031260;28;20056;-76
2022/12/18 05:11:18;;;;;;;26.83;15.45;;;;;;;;;;5033062;28;20030;-75
2022/12/18 05:13:44;;;;;;;24.35;16.17;;;;;;;;;;5041059;28;20049;-73
2022/12/18 05:16:09;;;;;;;26.83;16.20;;;;;;;;;;5039334;28;20514;-74
2022/12/18 05:18:35;;;;;;;27.45;15.75;;;;;;;;;;5037552;28;20064;-73
2022/12/18 05:21:00;;;;;;;26.98;16.40;;;;;;;;;;5041452;28;20836;-75
2022/12/18 05:23:26;;;;;;;26.40;15.45;;;;;;;;;;5038640;28;20017;-75
2022/12/18 05:25:55;;;;;;;29.20;16.75;;;;;;;;;;5039911;28;20043;-74
2022/12/18 05:28:21;;;;;;;27.65;16.25;;;;;;;;;;5035812;28;20029;-74
2022/12/18 05:30:50;;;;;;;25.75;16.67;;;;;;;;;;5027038;28;20029;-74
2022/12/18 05:33:16;;;;;;;24.60;15.45;;;;;;;;;;5032088;28;20021;-74
2022/12/18 05:35:41;;;;;;;36.15;17.20;;;;;;;;;;5034727;28;20016;-74
2022/12/18 05:38:06;;;;;;;25.30;16.70;;;;;;;;;;5021000;28;20021;-74
2022/12/18 05:40:32;;;;;;;26.02;16.45;;;;;;;;;;5016593;28;20009;-75
2022/12/18 05:42:57;;;;;;;25.33;17.10;;;;;;;;;;5014585;28;20029;-74
2022/12/18 05:45:22;;;;;;;24.98;14.40;;;;;;;;;;5040171;28;20040;-73
2022/12/18 05:47:47;;;;;;;23.48;16.02;;;;;;;;;;5036322;28;20094;-74
2022/12/18 05:50:13;;;;;;;27.55;16.88;;;;;;;;;;5036464;28;20131;-74
2022/12/18 05:52:38;;;;;;;30.98;16.02;;;;;;;;;;5032294;28;20056;-75
2022/12/18 05:55:04;;;;;;;24.27;15.30;;;;;;;;;;5019833;28;20086;-74
2022/12/18 05:57:30;;;;;;;26.45;16.05;;;;;;;;;;5033644;28;20060;-74
2022/12/18 05:59:55;;;;;;;25.33;16.35;;;;;;;;;;5019387;28;20021;-74
2022/12/18 06:02:20;;;;;;;26.00;16.02;;;;;;;;;;5015520;28;20083;-74
2022/12/18 06:04:46;;;;;;;26.25;16.08;;;;;;;;;;5021362;28;20017;-74
2022/12/18 06:07:11;;;;;;;28.63;17.63;;;;;;;;;;5037135;28;20103;-73
2022/12/18 06:09:36;;;;;;;23.88;16.08;;;;;;;;;;5025814;28;20071;-73
2022/12/18 06:12:01;;;;;;;30.38;16.98;;;;;;;;;;5031626;28;20049;-74
2022/12/18 06:14:27;;;;;;;24.45;16.58;;;;;;;;;;5036249;28;20234;-74
2022/12/18 06:16:52;;;;;;;33.80;17.85;;;;;;;;;;5025705;28;20021;-74
2022/12/18 06:19:17;;;;;;;28.02;16.90;;;;;;;;;;5020990;28;20028;-73
2022/12/18 06:21:43;;;;;;;29.55;16.83;;;;;;;;;;5018396;28;20060;-73
2022/12/18 06:24:08;;;;;;;27.52;16.88;;;;;;;;;;5031641;28;20775;-73
2022/12/18 06:26:33;;;;;;;30.02;17.23;;;;;;;;;;5028455;28;20641;-72
2022/12/18 06:28:58;;;;;;;25.77;16.67;;;;;;;;;;5020774;28;20016;-73
2022/12/18 06:31:24;;;;;;;32.90;17.40;;;;;;;;;;5006072;28;20530;-73
2022/12/18 06:33:50;;;;;;;29.98;17.65;;;;;;;;;;5027680;28;20419;-73
2022/12/18 06:36:16;;;;;;;27.80;17.55;;;;;;;;;;5032516;28;20830;-72
2022/12/18 06:38:42;;;;;;;30.38;18.90;;;;;;;;;;5031288;28;20025;-73
2022/12/18 06:41:11;;;;;;;29.02;19.08;;;;;;;;;;5029189;28;20025;-73
2022/12/18 06:43:36;;;;;;;28.95;17.63;;;;;;;;;;5026370;28;20032;-72
2022/12/18 06:46:02;;;;;;;30.48;17.88;;;;;;;;;;5029503;28;20028;-72
2022/12/18 06:48:27;;;;;;;31.48;19.25;;;;;;;;;;5018145;28;20040;-72
2022/12/18 06:50:53;;;;;;;32.25;18.15;;;;;;;;;;5028267;28;20035;-73
2022/12/18 06:53:18;;;;;;;36.60;18.45;;;;;;;;;;5022383;28;20128;-73
2022/12/18 06:55:43;;;;;;;26.40;17.60;;;;;;;;;;5017690;28;20021;-73
2022/12/18 06:58:09;;;;;;;24.65;16.83;;;;;;;;;;5027136;28;20027;-73
2022/12/18 07:00:34;;;;;;;26.25;17.17;;;;;;;;;;5010501;28;20120;-74
2022/12/18 07:02:59;;;;;;;28.20;17.95;;;;;;;;;;5019048;28;20092;-72
2022/12/18 07:05:24;;;;;;;25.40;17.92;;;;;;;;;;5029647;28;20024;-72
2022/12/18 07:07:50;;;;;;;25.00;16.80;;;;;;;;;;5024373;28;20087;-74
2022/12/18 07:10:15;;;;;;;30.25;17.90;;;;;;;;;;5017118;28;20025;-72
2022/12/18 07:12:40;;;;;;;27.58;17.95;;;;;;;;;;5030288;28;20021;-73
2022/12/18 07:15:06;;;;;;;30.35;18.58;;;;;;;;;;5020739;28;20827;-74
2022/12/18 07:17:32;;;;;;;29.35;18.13;;;;;;;;;;5017007;28;20810;-72
2022/12/18 07:19:57;;;;;;;27.27;18.52;;;;;;;;;;5028594;28;20868;-74
2022/12/18 07:22:22;;;;;;;25.75;17.35;;;;;;;;;;5024669;28;20025;-73
2022/12/18 07:24:47;;;;;;;25.15;18.13;;;;;;;;;;5013162;28;20136;-72
2022/12/18 07:27:13;;;;;;;32.78;19.40;;;;;;;;;;5018803;28;20467;-72
2022/12/18 07:29:38;;;;;;;31.23;18.42;;;;;;;;;;5025359;28;20024;-73
2022/12/18 07:32:03;;;;;;;33.47;22.10;;;;;;;;;;5020619;28;20908;-73
2022/12/18 07:34:29;;;;;;;35.55;20.70;;;;;;;;;;5007234;28;20067;-73
2022/12/18 07:36:54;;;;;;;34.50;20.15;;;;;;;;;;5018493;28;20088;-72
2022/12/18 07:39:19;;;;;;;28.73;19.70;;;;;;;;;;5024086;28;20116;-72
2022/12/18 07:42:30;;;;;;;30.73;20.60;;;;;;;;;;5004646;28;20028;-72
2022/12/18 07:44:30;;;;;;;27.35;19.23;;;;;;;;;;5021835;28;20036;-71
2022/12/18 07:46:55;;;;;;;30.80;19.00;;;;;;;;;;5026949;28;20021;-70
2022/12/18 07:49:20;;;;;;;39.13;20.98;;;;;;;;;;5058426;28;20044;-70
2022/12/18 07:51:48;;;;;;;32.03;20.92;;;;;;;;;;5028507;28;20083;-70
2022/12/18 07:54:14;;;;;;;27.48;19.52;;;;;;;;;;5022284;28;20281;-70
2022/12/18 07:56:39;;;;;;;33.22;21.00;;;;;;;;;;5020174;28;20864;-69
2022/12/18 07:59:04;;;;;;;30.98;20.77;;;;;;;;;;5011238;28;20750;-70
2022/12/18 08:01:30;;;;;;;32.03;19.60;;;;;;;;;;5010692;28;20114;-72
2022/12/18 08:03:55;;;;;;;33.47;20.73;;;;;;;;;;5010194;28;20061;-72
2022/12/18 08:06:20;;;;;;;39.25;19.77;;;;;;;;;;4998270;28;20771;-72
2022/12/18 08:08:45;;;;;;;34.03;21.30;;;;;;;;;;5009912;28;20825;-72
2022/12/18 08:11:10;;;;;;;34.60;20.98;;;;;;;;;;5011922;28;20025;-72
2022/12/18 08:13:36;;;;;;;33.63;22.33;;;;;;;;;;5011246;28;20060;-70
2022/12/18 08:16:02;;;;;;;34.30;21.55;;;;;;;;;;5012306;28;20056;-72
2022/12/18 08:18:28;;;;;;;32.28;21.80;;;;;;;;;;5007653;28;20036;-72
2022/12/18 08:20:54;;;;;;;30.45;19.00;;;;;;;;;;5009779;28;20013;-72
2022/12/18 08:23:19;;;;;;;30.33;19.85;;;;;;;;;;5010296;28;20130;-72
2022/12/18 08:25:44;;;;;;;38.10;21.58;;;;;;;;;;5010522;28;20017;-72
2022/12/18 08:28:10;;;;;;;34.15;20.45;;;;;;;;;;5010835;28;20017;-72
2022/12/18 08:30:35;;;;;;;38.22;22.25;;;;;;;;;;5010039;28;20067;-72
2022/12/18 08:33:00;;;;;;;37.72;22.30;;;;;;;;;;5009946;28;20805;-71
2022/12/18 08:35:28;;;;;;;36.65;22.50;;;;;;;;;;5010932;28;20028;-72
2022/12/18 08:37:54;;;;;;;35.90;21.27;;;;;;;;;;5010402;28;20023;-72
2022/12/18 08:40:22;;;;;;;32.45;20.85;;;;;;;;;;5009424;28;20914;-72
2022/12/18 08:45:38;;;;;;;38.78;22.60;;;;;;;;;;4996750;28;20026;-72
2022/12/18 08:48:04;;;;;;;33.95;22.20;;;;;;;;;;5004351;28;20032;-72
2022/12/18 08:50:29;;;;;;;35.03;22.08;;;;;;;;;;5016976;28;20028;-71
2022/12/18 08:52:54;;;;;;;35.83;23.58;;;;;;;;;;5017249;28;20021;-72
2022/12/18 08:55:20;;;;;;;36.20;22.58;;;;;;;;;;5018384;28;20136;-72
2022/12/18 08:57:48;;;;;;;32.05;21.27;;;;;;;;;;5017750;28;20147;-72
2022/12/18 09:00:13;;;;;;;32.60;22.50;;;;;;;;;;5018680;28;20054;-71
2022/12/18 09:02:38;;;;;;;35.65;22.30;;;;;;;;;;5010034;28;20029;-72
2022/12/18 09:05:04;;;;;;;36.83;22.63;;;;;;;;;;5015578;28;20032;-71
2022/12/18 09:07:29;;;;;;;37.67;23.15;;;;;;;;;;5009302;28;20133;-71
2022/12/18 09:09:55;;;;;;;33.80;21.58;;;;;;;;;;5021072;28;20024;-72
2022/12/18 09:12:20;;;;;;;40.63;26.13;;;;;;;;;;5003599;28;20028;-72
2022/12/18 09:14:46;;;;;;;38.10;26.23;;;;;;;;;;5017869;28;20956;-72
2022/12/18 09:17:11;;;;;;;40.28;26.98;;;;;;;;;;5016676;28;20024;-72
2022/12/18 09:19:36;;;;;;;42.75;27.55;;;;;;;;;;5016077;28;20021;-72
2022/12/18 09:22:02;;;;;;;34.90;25.08;;;;;;;;;;5004887;28;20087;-72
2022/12/18 09:24:27;;;;;;;50.65;33.92;;;;;;;;;;5006828;28;20851;-72
2022/12/18 09:26:54;;;;;;;39.60;24.52;;;;;;;;;;5016347;28;20021;-72
2022/12/18 09:29:19;;;;;;;39.90;23.73;;;;;;;;;;5016815;28;20082;-72
2022/12/18 09:31:45;;;;;;;44.42;29.08;;;;;;;;;;5016217;28;20030;-72
2022/12/18 09:34:10;;;;;;;40.92;26.42;;;;;;;;;;5017820;28;20966;-72
2022/12/18 09:36:35;;;;;;;36.80;24.73;;;;;;;;;;5019006;28;20083;-72
2022/12/18 09:39:01;;;;;;;35.38;24.08;;;;;;;;;;5021218;28;20044;-72
2022/12/18 09:41:26;;;;;;;36.30;25.30;;;;;;;;;;5024948;28;20829;-73
2022/12/18 09:43:53;;;;;;;35.55;23.95;;;;;;;;;;5011895;28;20033;-72
2022/12/18 09:46:22;;;;;;;40.45;23.80;;;;;;;;;;5016553;28;20025;-72
2022/12/18 09:48:49;;;;;;;35.25;23.48;;;;;;;;;;5023620;28;20942;-72
2022/12/18 09:51:16;;;;;;;34.70;23.38;;;;;;;;;;5020077;28;20174;-72
2022/12/18 09:53:45;;;;;;;39.22;23.88;;;;;;;;;;5022562;28;20851;-72
2022/12/18 09:56:15;;;;;;;36.28;22.77;;;;;;;;;;5018491;28;20025;-72
2022/12/18 09:58:47;;;;;;;37.67;23.25;;;;;;;;;;5015215;28;20029;-72
2022/12/18 10:01:19;;;;;;;36.33;22.65;;;;;;;;;;5017813;28;20396;-72
2022/12/18 10:03:45;;;;;;;34.72;23.30;;;;;;;;;;5018530;28;20021;-72
2022/12/18 10:06:28;;;;;;;38.30;24.02;;;;;;;;;;5016981;28;20043;-72
2022/12/18 10:09:13;;;;;;;37.63;23.13;;;;;;;;;;5017059;28;20017;-72
2022/12/18 10:11:57;;;;;;;33.47;22.27;;;;;;;;;;5017329;28;20029;-72
2022/12/18 10:14:22;;;;;;;36.95;22.48;;;;;;;;;;5010560;28;20103;-72
2022/12/18 10:16:58;;;;;;;35.25;22.85;;;;;;;;;;5020003;28;20037;-72
2022/12/18 10:19:23;;;;;;;37.47;25.98;;;;;;;;;;5016842;28;20033;-72
2022/12/18 10:22:01;;;;;;;38.63;25.08;;;;;;;;;;5016541;28;20031;-72
2022/12/18 10:24:32;;;;;;;47.70;31.60;;;;;;;;;;5020803;28;20082;-72
2022/12/18 10:27:17;;;;;;;35.40;24.70;;;;;;;;;;5017675;28;20109;-72
2022/12/18 10:29:45;;;;;;;33.85;23.83;;;;;;;;;;5012439;28;20017;-71
2022/12/18 10:32:18;;;;;;;41.05;24.90;;;;;;;;;;5012901;28;20025;-70
2022/12/18 10:34:47;;;;;;;34.30;24.05;;;;;;;;;;5010548;28;20024;-71
2022/12/18 10:37:17;;;;;;;36.63;24.02;;;;;;;;;;5014331;28;20226;-71
2022/12/18 10:39:42;;;;;;;32.72;23.20;;;;;;;;;;5002956;28;20017;-71
2022/12/18 10:42:16;;;;;;;37.92;25.52;;;;;;;;;;5007300;28;20027;-71
2022/12/18 10:44:41;;;;;;;;;;;;;;;;;;5012637;28;20029;-71
2022/12/18 10:47:11;;;;;;;32.38;23.02;;;;;;;;;;5015489;28;19917;-71
2022/12/18 10:49:40;;;;;;;36.67;23.63;;;;;;;;;;5027399;28;20127;-71
2022/12/18 10:52:20;;;;;;;37.35;25.30;;;;;;;;;;5030477;28;20044;-71
2022/12/18 10:54:51;;;;;;;32.42;22.77;;;;;;;;;;5036420;28;20060;-79
2022/12/18 10:57:28;;;;;;;38.78;26.80;;;;;;;;;;5032430;28;20021;-73
2022/12/18 10:59:54;;;;;;;31.00;21.73;;;;;;;;;;5034181;28;20131;-74
2022/12/18 11:02:28;;;;;;;43.05;26.92;;;;;;;;;;5037177;28;20092;-70
2022/12/18 11:04:53;;;;;;;;;;;;;;;;;;5028098;28;20024;-67
2022/12/18 11:07:19;;;;;;;38.10;24.40;;;;;;;;;;5034205;28;19916;-68
2022/12/18 11:09:58;;;;;;;35.40;22.80;;;;;;;;;;5033569;28;20028;-67
2022/12/18 11:12:24;;;;;;;36.40;22.98;;;;;;;;;;5024140;28;20461;-70
2022/12/18 11:14:50;;;;;;;33.70;21.33;;;;;;;;;;5037043;28;20064;-78
2022/12/18 11:17:25;;;;;;;35.35;22.73;;;;;;;;;;5040923;28;20132;-74
2022/12/18 11:19:56;;;;;;;33.83;22.90;;;;;;;;;;5041045;28;20113;-71
2022/12/18 11:22:27;;;;;;;34.80;23.10;;;;;;;;;;5037889;28;20125;-75
2022/12/18 11:25:22;;;;;;;32.40;22.52;;;;;;;;;;5032206;28;20868;-77
2022/12/18 11:27:48;;;;;;;34.30;21.15;;;;;;;;;;5006719;28;20033;-68
2022/12/18 11:30:21;;;;;;;33.83;21.63;;;;;;;;;;5010457;28;20051;-67
2022/12/18 11:32:55;;;;;;;30.08;21.25;;;;;;;;;;5008135;28;20033;-67
2022/12/18 11:35:34;;;;;;;31.38;21.23;;;;;;;;;;5004124;28;20227;-71
2022/12/18 11:38:04;;;;;;;33.03;23.02;;;;;;;;;;5006317;28;20040;-68
2022/12/18 11:40:33;;;;;;;33.72;23.15;;;;;;;;;;5010771;28;20734;-67
2022/12/18 11:43:02;;;;;;;35.33;21.45;;;;;;;;;;5010414;28;20017;-72
2022/12/18 11:45:30;;;;;;;31.10;20.35;;;;;;;;;;4995721;28;20021;-67
2022/12/18 11:48:13;;;;;;;30.17;20.75;;;;;;;;;;5009467;28;20914;-66
2022/12/18 11:50:51;;;;;;;38.75;22.33;;;;;;;;;;5009085;28;20033;-68
2022/12/18 11:53:17;;;;;;;42.35;24.83;;;;;;;;;;5001270;28;20082;-75
2022/12/18 11:55:51;;;;;;;82.85;44.95;;;;;;;;;;5007713;28;20021;-66
2022/12/18 11:58:25;;;;;;;51.40;33.55;;;;;;;;;;5003449;28;20021;-66
2022/12/18 12:00:58;;;;;;;40.45;27.00;;;;;;;;;;5006539;28;20127;-71
2022/12/18 12:03:35;;;;;;;32.72;22.73;;;;;;;;;;5008843;28;20028;-69
2022/12/18 12:06:06;;;;;;;32.47;21.67;;;;;;;;;;5001987;28;20013;-69
2022/12/18 12:08:34;;;;;;;32.05;21.60;;;;;;;;;;5009789;28;20136;-67
2022/12/18 12:11:23;;;;;;;35.97;26.38;;;;;;;;;;5007851;28;20041;-67
2022/12/18 12:14:07;;;;;;;37.00;21.23;;;;;;;;;;5000794;28;20040;-69
2022/12/18 12:16:58;;;;;;;31.40;21.13;;;;;;;;;;5002313;28;20021;-69
2022/12/18 12:19:37;;;;;;;33.90;21.02;;;;;;;;;;4996851;28;20202;-69
2022/12/18 12:22:07;;;;;;;29.55;22.58;;;;;;;;;;5008614;28;20025;-69
2022/12/18 12:24:45;;;;;;;29.80;21.27;;;;;;;;;;5007244;28;20021;-69
2022/12/18 12:27:13;;;;;;;30.92;21.20;;;;;;;;;;5007567;28;20021;-69
2022/12/18 12:29:51;;;;;;;33.10;21.10;;;;;;;;;;5008078;28;20893;-69
2022/12/18 12:32:16;;;;;;;34.58;21.15;;;;;;;;;;5008863;28;20029;-69
2022/12/18 12:34:41;;;;;;;32.88;21.30;;;;;;;;;;5008753;28;20032;-69
2022/12/18 12:37:09;;;;;;;34.92;23.48;;;;;;;;;;5008816;28;20036;-69
2022/12/18 12:39:39;;;;;;;29.48;20.80;;;;;;;;;;5008008;28;20032;-69
2022/12/18 12:44:55;;;;;;;32.78;22.02;;;;;;;;;;4999934;28;20064;-69
2022/12/18 12:47:24;;;;;;;30.33;21.38;;;;;;;;;;5006693;28;20036;-69
2022/12/18 12:49:50;;;;;;;29.40;22.17;;;;;;;;;;4998990;28;20028;-69
2022/12/18 12:52:30;;;;;;;34.67;23.77;;;;;;;;;;5008477;28;20017;-69
2022/12/18 12:54:56;;;;;;;42.10;22.73;;;;;;;;;;5009090;28;20132;-70
2022/12/18 12:57:25;;;;;;;33.13;22.13;;;;;;;;;;5008673;28;20025;-66
2022/12/18 12:59:59;;;;;;;30.45;21.95;;;;;;;;;;5004927;28;20013;-68
2022/12/18 13:02:30;;;;;;;30.25;21.20;;;;;;;;;;5046072;28;20033;-68
2022/12/18 13:04:56;;;;;;;36.10;25.60;;;;;;;;;;5040893;28;20017;-69
2022/12/18 13:07:37;;;;;;;39.58;26.35;;;;;;;;;;5047918;28;20036;-69
2022/12/18 13:10:24;;;;;;;39.50;26.98;;;;;;;;;;5039580;28;20427;-69
2022/12/18 13:13:02;;;;;;;73.97;48.83;;;;;;;;;;5048588;28;20490;-69
2022/12/18 13:15:36;;;;;;;36.17;23.65;;;;;;;;;;5048698;28;20025;-69
2022/12/18 13:18:01;;;;;;;;;;;;;;;;;;5050174;28;20021;-69
2022/12/18 13:20:32;;;;;;;38.75;25.70;;;;;;;;;;5042333;28;19963;-69
2022/12/18 13:22:57;;;;;;;38.72;26.20;;;;;;;;;;5048490;28;20032;-70
2022/12/18 13:25:27;;;;;;;72.40;50.47;;;;;;;;;;5044957;28;20025;-69
2022/12/18 13:27:59;;;;;;;36.08;23.50;;;;;;;;;;5049571;28;20053;-70
2022/12/18 13:30:33;;;;;;;31.38;22.23;;;;;;;;;;5053634;28;20073;-71
2022/12/18 13:33:13;;;;;;;31.52;22.42;;;;;;;;;;5053826;28;20039;-67
2022/12/18 13:35:40;;;;;;;29.08;21.25;;;;;;;;;;5047564;28;20100;-66
2022/12/18 13:38:20;;;;;;;33.20;22.80;;;;;;;;;;5053818;28;20017;-67
2022/12/18 13:40:45;;;;;;;31.63;21.25;;;;;;;;;;5054014;28;20011;-67
2022/12/18 13:43:20;;;;;;;31.88;21.55;;;;;;;;;;5046602;28;20439;-66
2022/12/18 13:45:45;;;;;;;35.47;21.20;;;;;;;;;;5052886;28;20017;-65
2022/12/18 13:48:21;;;;;;;30.35;21.70;;;;;;;;;;5052874;28;20055;-68
2022/12/18 13:51:06;;;;;;;28.98;20.42;;;;;;;;;;5045468;28;20052;-63
2022/12/18 13:53:52;;;;;;;43.13;20.40;;;;;;;;;;5050829;28;20107;-64
2022/12/18 13:56:19;;;;;;;32.17;22.85;;;;;;;;;;5053068;28;20033;-64
2022/12/18 13:58:44;;;;;;;34.90;22.02;;;;;;;;;;5052990;28;20441;-81
2022/12/18 14:01:21;;;;;;;37.45;21.90;;;;;;;;;;5052636;28;20047;-67
2022/12/18 14:03:46;;;;;;;30.55;20.98;;;;;;;;;;5052915;28;20021;-69
2022/12/18 14:06:12;;;;;;;34.40;22.15;;;;;;;;;;5046900;28;20029;-71
2022/12/18 14:08:39;;;;;;;27.92;20.80;;;;;;;;;;5052189;28;20020;-68
2022/12/18 14:11:08;;;;;;;30.35;21.08;;;;;;;;;;5052389;28;20029;-71
2022/12/18 14:13:39;;;;;;;34.10;23.50;;;;;;;;;;5052302;28;20013;-69
2022/12/18 14:16:06;;;;;;;28.00;20.88;;;;;;;;;;5051307;28;20139;-75
2022/12/18 14:18:45;;;;;;;33.83;22.42;;;;;;;;;;5052474;28;20066;-72
2022/12/18 14:21:25;;;;;;;29.77;21.30;;;;;;;;;;5052348;28;20009;-68
2022/12/18 14:24:09;;;;;;;36.55;21.17;;;;;;;;;;5051137;28;20033;-71
2022/12/18 14:26:34;;;;;;;27.50;20.55;;;;;;;;;;5052727;28;20099;-70
2022/12/18 14:29:01;;;;;;;29.55;21.17;;;;;;;;;;5052982;28;20055;-72
2022/12/18 14:31:28;;;;;;;35.40;22.17;;;;;;;;;;5053067;28;20025;-69
2022/12/18 14:33:53;;;;;;;30.25;20.05;;;;;;;;;;5046706;28;20207;-72